sensor_id;sensor_type;location;lat;lon;timestamp;P1;durP1;ratioP1;P2;durP2;ratioP2
23628;SDS011;11991;57.150;-2.134;2022-10-15T00:01:39;0.75;;;0.57;;
23628;SDS011;11991;57.150;-2.134;2022-10-15T00:04:07;0.60;;;0.60;;
23628;SDS011;11991;57.150;-2.134;2022-10-15T00:06:34;0.70;;;0.70;;
23628;SDS011;11991;57.150;-2.134;2022-10-15T00:09:02;0.85;;;0.75;;
23628;SDS011;11991;57.150;-2.134;2022-10-15T00:11:30;3.38;;;0.60;;
23628;SDS011;11991;57.150;-2.134;2022-10-15T00:13:57;1.48;;;0.47;;
23628;SDS011;11991;57.150;-2.134;2022-10-15T00:16:26;0.50;;;0.50;;
23628;SDS011;11991;57.150;-2.134;2022-10-15T00:18:55;0.70;;;0.70;;
23628;SDS011;11991;57.150;-2.134;2022-10-15T00:21:24;0.60;;;0.60;;
23628;SDS011;11991;57.150;-2.134;2022-10-15T00:23:51;1.10;;;0.70;;
23628;SDS011;11991;57.150;-2.134;2022-10-15T00:26:22;0.63;;;0.60;;
23628;SDS011;11991;57.150;-2.134;2022-10-15T00:28:51;0.57;;;0.40;;
23628;SDS011;11991;57.150;-2.134;2022-10-15T00:31:21;0.88;;;0.50;;
23628;SDS011;11991;57.150;-2.134;2022-10-15T00:33:52;0.90;;;0.50;;
23628;SDS011;11991;57.150;-2.134;2022-10-15T00:36:27;0.50;;;0.50;;
23628;SDS011;11991;57.150;-2.134;2022-10-15T00:38:56;0.70;;;0.50;;
23628;SDS011;11991;57.150;-2.134;2022-10-15T00:41:26;0.65;;;0.43;;
23628;SDS011;11991;57.150;-2.134;2022-10-15T00:43:58;0.40;;;0.40;;
23628;SDS011;11991;57.150;-2.134;2022-10-15T00:46:43;0.40;;;0.40;;
23628;SDS011;11991;57.150;-2.134;2022-10-15T00:51:48;0.88;;;0.40;;
23628;SDS011;11991;57.150;-2.134;2022-10-15T00:54:23;1.20;;;0.50;;
23628;SDS011;11991;57.150;-2.134;2022-10-15T00:56:53;0.50;;;0.50;;
23628;SDS011;11991;57.150;-2.134;2022-10-15T00:59:21;1.65;;;0.60;;
23628;SDS011;11991;57.150;-2.134;2022-10-15T01:01:51;0.50;;;0.40;;
23628;SDS011;11991;57.150;-2.134;2022-10-15T01:04:20;0.60;;;0.52;;
23628;SDS011;11991;57.150;-2.134;2022-10-15T01:06:49;0.40;;;0.40;;
23628;SDS011;11991;57.150;-2.134;2022-10-15T01:09:16;0.98;;;0.50;;
23628;SDS011;11991;57.150;-2.134;2022-10-15T01:11:44;0.70;;;0.50;;
23628;SDS011;11991;57.150;-2.134;2022-10-15T01:37:04;2.97;;;1.05;;
23628;SDS011;11991;57.150;-2.134;2022-10-15T01:39:44;0.40;;;0.40;;
23628;SDS011;11991;57.150;-2.134;2022-10-15T01:42:26;0.70;;;0.70;;
23628;SDS011;11991;57.150;-2.134;2022-10-15T01:44:59;0.57;;;0.50;;
23628;SDS011;11991;57.150;-2.134;2022-10-15T01:47:50;0.95;;;0.70;;
23628;SDS011;11991;57.150;-2.134;2022-10-15T01:50:21;0.63;;;0.50;;
23628;SDS011;11991;57.150;-2.134;2022-10-15T01:52:52;1.15;;;0.50;;
23628;SDS011;11991;57.150;-2.134;2022-10-15T01:55:22;0.63;;;0.60;;
23628;SDS011;11991;57.150;-2.134;2022-10-15T01:57:53;1.05;;;0.68;;
23628;SDS011;11991;57.150;-2.134;2022-10-15T02:00:23;1.20;;;0.55;;
23628;SDS011;11991;57.150;-2.134;2022-10-15T02:02:51;0.50;;;0.50;;
23628;SDS011;11991;57.150;-2.134;2022-10-15T02:05:23;0.90;;;0.60;;
23628;SDS011;11991;57.150;-2.134;2022-10-15T02:19:06;0.50;;;0.50;;
23628;SDS011;11991;57.150;-2.134;2022-10-15T02:25:00;1.10;;;0.57;;
23628;SDS011;11991;57.150;-2.134;2022-10-15T02:27:27;0.70;;;0.40;;
23628;SDS011;11991;57.150;-2.134;2022-10-15T02:29:56;1.15;;;0.50;;
23628;SDS011;11991;57.150;-2.134;2022-10-15T02:32:25;0.40;;;0.40;;
23628;SDS011;11991;57.150;-2.134;2022-10-15T02:34:54;0.80;;;0.50;;
23628;SDS011;11991;57.150;-2.134;2022-10-15T02:37:23;0.30;;;0.30;;
23628;SDS011;11991;57.150;-2.134;2022-10-15T02:39:52;0.90;;;0.50;;
23628;SDS011;11991;57.150;-2.134;2022-10-15T02:42:19;1.02;;;0.60;;
23628;SDS011;11991;57.150;-2.134;2022-10-15T02:44:47;0.50;;;0.50;;
23628;SDS011;11991;57.150;-2.134;2022-10-15T02:47:14;2.05;;;0.90;;
23628;SDS011;11991;57.150;-2.134;2022-10-15T02:49:42;0.55;;;0.50;;
23628;SDS011;11991;57.150;-2.134;2022-10-15T02:52:09;0.55;;;0.55;;
23628;SDS011;11991;57.150;-2.134;2022-10-15T02:54:36;1.05;;;0.65;;
23628;SDS011;11991;57.150;-2.134;2022-10-15T02:57:04;1.15;;;0.60;;
23628;SDS011;11991;57.150;-2.134;2022-10-15T02:59:31;0.75;;;0.60;;
23628;SDS011;11991;57.150;-2.134;2022-10-15T03:01:59;0.70;;;0.60;;
23628;SDS011;11991;57.150;-2.134;2022-10-15T03:04:27;0.47;;;0.47;;
23628;SDS011;11991;57.150;-2.134;2022-10-15T03:06:54;0.85;;;0.55;;
23628;SDS011;11991;57.150;-2.134;2022-10-15T03:09:22;0.50;;;0.40;;
23628;SDS011;11991;57.150;-2.134;2022-10-15T03:11:49;1.00;;;0.68;;
23628;SDS011;11991;57.150;-2.134;2022-10-15T03:14:16;0.50;;;0.50;;
23628;SDS011;11991;57.150;-2.134;2022-10-15T03:16:43;1.23;;;0.65;;
23628;SDS011;11991;57.150;-2.134;2022-10-15T03:19:11;0.80;;;0.73;;
23628;SDS011;11991;57.150;-2.134;2022-10-15T03:21:39;1.17;;;0.73;;
23628;SDS011;11991;57.150;-2.134;2022-10-15T03:24:10;1.35;;;0.70;;
23628;SDS011;11991;57.150;-2.134;2022-10-15T03:26:37;0.68;;;0.60;;
23628;SDS011;11991;57.150;-2.134;2022-10-15T03:29:05;0.60;;;0.60;;
23628;SDS011;11991;57.150;-2.134;2022-10-15T03:31:40;0.60;;;0.60;;
23628;SDS011;11991;57.150;-2.134;2022-10-15T03:34:07;0.52;;;0.52;;
23628;SDS011;11991;57.150;-2.134;2022-10-15T03:36:35;0.70;;;0.70;;
23628;SDS011;11991;57.150;-2.134;2022-10-15T03:39:05;0.82;;;0.70;;
23628;SDS011;11991;57.150;-2.134;2022-10-15T03:41:35;1.95;;;0.93;;
23628;SDS011;11991;57.150;-2.134;2022-10-15T03:44:05;0.60;;;0.60;;
23628;SDS011;11991;57.150;-2.134;2022-10-15T03:46:35;0.88;;;0.70;;
23628;SDS011;11991;57.150;-2.134;2022-10-15T03:49:02;0.82;;;0.70;;
23628;SDS011;11991;57.150;-2.134;2022-10-15T03:51:30;0.63;;;0.63;;
23628;SDS011;11991;57.150;-2.134;2022-10-15T03:54:04;1.27;;;0.80;;
23628;SDS011;11991;57.150;-2.134;2022-10-15T03:56:37;1.02;;;0.55;;
23628;SDS011;11991;57.150;-2.134;2022-10-15T03:59:19;1.25;;;0.65;;
23628;SDS011;11991;57.150;-2.134;2022-10-15T04:01:54;3.78;;;0.88;;
23628;SDS011;11991;57.150;-2.134;2022-10-15T04:04:22;0.52;;;0.52;;
23628;SDS011;11991;57.150;-2.134;2022-10-15T04:06:49;0.70;;;0.60;;
23628;SDS011;11991;57.150;-2.134;2022-10-15T04:09:17;0.60;;;0.60;;
23628;SDS011;11991;57.150;-2.134;2022-10-15T04:11:45;0.75;;;0.60;;
23628;SDS011;11991;57.150;-2.134;2022-10-15T04:14:12;0.82;;;0.60;;
23628;SDS011;11991;57.150;-2.134;2022-10-15T04:16:41;1.80;;;0.68;;
23628;SDS011;11991;57.150;-2.134;2022-10-15T04:19:13;1.85;;;0.80;;
23628;SDS011;11991;57.150;-2.134;2022-10-15T04:21:45;1.33;;;0.80;;
23628;SDS011;11991;57.150;-2.134;2022-10-15T04:24:25;1.45;;;0.60;;
23628;SDS011;11991;57.150;-2.134;2022-10-15T04:26:53;0.65;;;0.50;;
23628;SDS011;11991;57.150;-2.134;2022-10-15T04:29:20;0.57;;;0.52;;
23628;SDS011;11991;57.150;-2.134;2022-10-15T04:31:48;0.98;;;0.70;;
23628;SDS011;11991;57.150;-2.134;2022-10-15T04:34:15;1.38;;;0.60;;
23628;SDS011;11991;57.150;-2.134;2022-10-15T04:36:42;1.30;;;0.60;;
23628;SDS011;11991;57.150;-2.134;2022-10-15T04:39:13;1.52;;;0.68;;
23628;SDS011;11991;57.150;-2.134;2022-10-15T04:41:42;1.98;;;0.60;;
23628;SDS011;11991;57.150;-2.134;2022-10-15T04:44:16;0.63;;;0.40;;
23628;SDS011;11991;57.150;-2.134;2022-10-15T04:47:03;2.22;;;0.60;;
23628;SDS011;11991;57.150;-2.134;2022-10-15T04:49:42;0.55;;;0.45;;
23628;SDS011;11991;57.150;-2.134;2022-10-15T04:52:26;4.63;;;0.60;;
23628;SDS011;11991;57.150;-2.134;2022-10-15T04:54:55;0.50;;;0.50;;
23628;SDS011;11991;57.150;-2.134;2022-10-15T04:57:24;1.65;;;0.60;;
23628;SDS011;11991;57.150;-2.134;2022-10-15T04:59:53;0.80;;;0.80;;
23628;SDS011;11991;57.150;-2.134;2022-10-15T05:02:26;1.33;;;0.70;;
23628;SDS011;11991;57.150;-2.134;2022-10-15T05:05:06;1.60;;;0.93;;
23628;SDS011;11991;57.150;-2.134;2022-10-15T05:07:41;1.50;;;0.50;;
23628;SDS011;11991;57.150;-2.134;2022-10-15T05:10:08;3.25;;;0.90;;
23628;SDS011;11991;57.150;-2.134;2022-10-15T05:12:36;1.42;;;0.47;;
23628;SDS011;11991;57.150;-2.134;2022-10-15T05:15:04;1.20;;;0.65;;
23628;SDS011;11991;57.150;-2.134;2022-10-15T05:17:32;1.65;;;0.70;;
23628;SDS011;11991;57.150;-2.134;2022-10-15T05:20:00;3.03;;;1.05;;
23628;SDS011;11991;57.150;-2.134;2022-10-15T05:22:28;0.50;;;0.50;;
23628;SDS011;11991;57.150;-2.134;2022-10-15T05:24:58;1.00;;;0.68;;
23628;SDS011;11991;57.150;-2.134;2022-10-15T05:27:36;0.93;;;0.80;;
23628;SDS011;11991;57.150;-2.134;2022-10-15T05:30:04;1.20;;;0.40;;
23628;SDS011;11991;57.150;-2.134;2022-10-15T05:32:37;3.05;;;0.70;;
23628;SDS011;11991;57.150;-2.134;2022-10-15T05:35:08;1.92;;;0.60;;
23628;SDS011;11991;57.150;-2.134;2022-10-15T05:37:51;2.15;;;0.77;;
23628;SDS011;11991;57.150;-2.134;2022-10-15T05:40:18;1.13;;;0.60;;
23628;SDS011;11991;57.150;-2.134;2022-10-15T05:43:01;2.38;;;0.50;;
23628;SDS011;11991;57.150;-2.134;2022-10-15T05:45:29;1.95;;;0.70;;
23628;SDS011;11991;57.150;-2.134;2022-10-15T05:48:01;2.00;;;0.80;;
23628;SDS011;11991;57.150;-2.134;2022-10-15T05:50:28;0.68;;;0.40;;
23628;SDS011;11991;57.150;-2.134;2022-10-15T05:52:57;1.15;;;0.52;;
23628;SDS011;11991;57.150;-2.134;2022-10-15T05:55:36;1.42;;;0.50;;
23628;SDS011;11991;57.150;-2.134;2022-10-15T05:58:03;0.82;;;0.60;;
23628;SDS011;11991;57.150;-2.134;2022-10-15T06:00:31;2.50;;;0.70;;
23628;SDS011;11991;57.150;-2.134;2022-10-15T06:02:58;2.67;;;1.10;;
23628;SDS011;11991;57.150;-2.134;2022-10-15T06:05:25;2.75;;;0.77;;
23628;SDS011;11991;57.150;-2.134;2022-10-15T06:07:52;3.00;;;1.27;;
23628;SDS011;11991;57.150;-2.134;2022-10-15T06:10:20;1.60;;;0.70;;
23628;SDS011;11991;57.150;-2.134;2022-10-15T06:12:47;0.70;;;0.40;;
23628;SDS011;11991;57.150;-2.134;2022-10-15T06:15:16;1.83;;;0.55;;
23628;SDS011;11991;57.150;-2.134;2022-10-15T06:17:44;2.55;;;1.27;;
23628;SDS011;11991;57.150;-2.134;2022-10-15T06:20:12;1.75;;;0.93;;
23628;SDS011;11991;57.150;-2.134;2022-10-15T06:22:39;0.85;;;0.55;;
23628;SDS011;11991;57.150;-2.134;2022-10-15T06:25:06;0.80;;;0.65;;
23628;SDS011;11991;57.150;-2.134;2022-10-15T06:27:34;1.55;;;0.65;;
23628;SDS011;11991;57.150;-2.134;2022-10-15T06:30:01;1.63;;;0.90;;
23628;SDS011;11991;57.150;-2.134;2022-10-15T06:32:29;2.15;;;0.80;;
23628;SDS011;11991;57.150;-2.134;2022-10-15T06:34:56;2.15;;;0.98;;
23628;SDS011;11991;57.150;-2.134;2022-10-15T06:37:24;2.08;;;0.95;;
23628;SDS011;11991;57.150;-2.134;2022-10-15T06:39:53;4.25;;;1.00;;
23628;SDS011;11991;57.150;-2.134;2022-10-15T06:42:20;2.85;;;1.23;;
23628;SDS011;11991;57.150;-2.134;2022-10-15T06:44:47;1.00;;;0.80;;
23628;SDS011;11991;57.150;-2.134;2022-10-15T06:47:15;3.20;;;1.08;;
23628;SDS011;11991;57.150;-2.134;2022-10-15T06:49:45;2.67;;;1.33;;
23628;SDS011;11991;57.150;-2.134;2022-10-15T06:52:12;2.72;;;1.05;;
23628;SDS011;11991;57.150;-2.134;2022-10-15T06:54:40;2.88;;;1.00;;
23628;SDS011;11991;57.150;-2.134;2022-10-15T06:57:09;2.75;;;1.30;;
23628;SDS011;11991;57.150;-2.134;2022-10-15T06:59:36;4.20;;;1.45;;
23628;SDS011;11991;57.150;-2.134;2022-10-15T07:02:10;5.63;;;1.45;;
23628;SDS011;11991;57.150;-2.134;2022-10-15T07:04:39;7.05;;;2.00;;
23628;SDS011;11991;57.150;-2.134;2022-10-15T07:07:06;3.70;;;0.93;;
23628;SDS011;11991;57.150;-2.134;2022-10-15T07:09:33;3.20;;;1.30;;
23628;SDS011;11991;57.150;-2.134;2022-10-15T07:12:02;3.35;;;1.10;;
23628;SDS011;11991;57.150;-2.134;2022-10-15T07:14:30;3.25;;;1.23;;
23628;SDS011;11991;57.150;-2.134;2022-10-15T07:16:58;6.95;;;1.60;;
23628;SDS011;11991;57.150;-2.134;2022-10-15T07:19:25;6.80;;;1.75;;
23628;SDS011;11991;57.150;-2.134;2022-10-15T07:21:53;2.38;;;0.98;;
23628;SDS011;11991;57.150;-2.134;2022-10-15T07:24:20;3.42;;;1.50;;
23628;SDS011;11991;57.150;-2.134;2022-10-15T07:26:48;3.30;;;1.65;;
23628;SDS011;11991;57.150;-2.134;2022-10-15T07:29:15;3.33;;;1.10;;
23628;SDS011;11991;57.150;-2.134;2022-10-15T07:31:44;3.55;;;1.05;;
23628;SDS011;11991;57.150;-2.134;2022-10-15T07:34:14;3.00;;;1.45;;
23628;SDS011;11991;57.150;-2.134;2022-10-15T07:36:42;5.90;;;1.30;;
23628;SDS011;11991;57.150;-2.134;2022-10-15T07:39:09;2.65;;;0.95;;
23628;SDS011;11991;57.150;-2.134;2022-10-15T07:41:37;3.45;;;1.27;;
23628;SDS011;11991;57.150;-2.134;2022-10-15T07:44:04;5.00;;;1.20;;
23628;SDS011;11991;57.150;-2.134;2022-10-15T07:46:31;5.22;;;1.20;;
23628;SDS011;11991;57.150;-2.134;2022-10-15T07:48:58;1.40;;;0.80;;
23628;SDS011;11991;57.150;-2.134;2022-10-15T07:51:25;2.33;;;0.70;;
23628;SDS011;11991;57.150;-2.134;2022-10-15T07:53:53;1.38;;;0.70;;
23628;SDS011;11991;57.150;-2.134;2022-10-15T07:56:20;2.97;;;1.08;;
23628;SDS011;11991;57.150;-2.134;2022-10-15T07:58:47;1.73;;;0.95;;
23628;SDS011;11991;57.150;-2.134;2022-10-15T08:01:18;2.25;;;0.85;;
23628;SDS011;11991;57.150;-2.134;2022-10-15T08:03:46;4.97;;;1.60;;
23628;SDS011;11991;57.150;-2.134;2022-10-15T08:06:16;2.35;;;0.90;;
23628;SDS011;11991;57.150;-2.134;2022-10-15T08:08:44;6.03;;;1.20;;
23628;SDS011;11991;57.150;-2.134;2022-10-15T08:11:12;3.10;;;1.17;;
23628;SDS011;11991;57.150;-2.134;2022-10-15T08:13:42;8.15;;;2.65;;
23628;SDS011;11991;57.150;-2.134;2022-10-15T08:16:13;9.27;;;2.47;;
23628;SDS011;11991;57.150;-2.134;2022-10-15T08:18:41;5.28;;;2.45;;
23628;SDS011;11991;57.150;-2.134;2022-10-15T08:21:09;4.82;;;2.70;;
23628;SDS011;11991;57.150;-2.134;2022-10-15T08:23:37;16.17;;;3.60;;
23628;SDS011;11991;57.150;-2.134;2022-10-15T08:26:04;8.88;;;3.55;;
23628;SDS011;11991;57.150;-2.134;2022-10-15T08:28:32;4.30;;;2.05;;
23628;SDS011;11991;57.150;-2.134;2022-10-15T08:31:00;7.38;;;2.83;;
23628;SDS011;11991;57.150;-2.134;2022-10-15T08:33:32;4.85;;;2.40;;
23628;SDS011;11991;57.150;-2.134;2022-10-15T08:36:00;2.95;;;1.92;;
23628;SDS011;11991;57.150;-2.134;2022-10-15T08:38:29;4.75;;;2.22;;
23628;SDS011;11991;57.150;-2.134;2022-10-15T08:40:58;2.22;;;1.85;;
23628;SDS011;11991;57.150;-2.134;2022-10-15T08:43:32;4.32;;;1.75;;
23628;SDS011;11991;57.150;-2.134;2022-10-15T08:46:08;5.50;;;1.70;;
23628;SDS011;11991;57.150;-2.134;2022-10-15T08:48:47;5.18;;;2.05;;
23628;SDS011;11991;57.150;-2.134;2022-10-15T08:51:19;3.90;;;1.92;;
23628;SDS011;11991;57.150;-2.134;2022-10-15T08:53:54;3.50;;;1.52;;
23628;SDS011;11991;57.150;-2.134;2022-10-15T08:56:47;2.38;;;1.23;;
23628;SDS011;11991;57.150;-2.134;2022-10-15T08:59:24;3.20;;;1.40;;
23628;SDS011;11991;57.150;-2.134;2022-10-15T09:01:58;2.42;;;1.48;;
23628;SDS011;11991;57.150;-2.134;2022-10-15T09:07:32;1.10;;;1.00;;
23628;SDS011;11991;57.150;-2.134;2022-10-15T09:10:14;1.48;;;1.00;;
23628;SDS011;11991;57.150;-2.134;2022-10-15T09:12:57;1.40;;;0.98;;
23628;SDS011;11991;57.150;-2.134;2022-10-15T09:15:31;1.58;;;1.00;;
23628;SDS011;11991;57.150;-2.134;2022-10-15T09:18:03;2.15;;;1.42;;
23628;SDS011;11991;57.150;-2.134;2022-10-15T09:20:35;3.58;;;1.50;;
23628;SDS011;11991;57.150;-2.134;2022-10-15T09:23:07;2.72;;;1.30;;
23628;SDS011;11991;57.150;-2.134;2022-10-15T09:25:43;2.97;;;1.30;;
23628;SDS011;11991;57.150;-2.134;2022-10-15T09:28:15;0.88;;;0.77;;
23628;SDS011;11991;57.150;-2.134;2022-10-15T09:30:47;2.55;;;1.20;;
23628;SDS011;11991;57.150;-2.134;2022-10-15T09:35:55;1.95;;;1.30;;
23628;SDS011;11991;57.150;-2.134;2022-10-15T09:44:14;0.70;;;0.70;;
23628;SDS011;11991;57.150;-2.134;2022-10-15T09:46:48;1.10;;;1.00;;
23628;SDS011;11991;57.150;-2.134;2022-10-15T09:49:22;1.83;;;1.20;;
23628;SDS011;11991;57.150;-2.134;2022-10-15T09:54:22;3.55;;;0.95;;
23628;SDS011;11991;57.150;-2.134;2022-10-15T09:56:54;3.08;;;1.40;;
23628;SDS011;11991;57.150;-2.134;2022-10-15T09:59:23;1.02;;;0.70;;
23628;SDS011;11991;57.150;-2.134;2022-10-15T10:02:01;2.05;;;1.10;;
23628;SDS011;11991;57.150;-2.134;2022-10-15T10:05:27;2.00;;;1.15;;
23628;SDS011;11991;57.150;-2.134;2022-10-15T10:08:06;3.10;;;1.10;;
23628;SDS011;11991;57.150;-2.134;2022-10-15T10:10:34;1.50;;;0.88;;
23628;SDS011;11991;57.150;-2.134;2022-10-15T10:13:04;1.67;;;0.90;;
23628;SDS011;11991;57.150;-2.134;2022-10-15T10:15:46;1.13;;;0.52;;
23628;SDS011;11991;57.150;-2.134;2022-10-15T10:18:24;0.98;;;0.60;;
23628;SDS011;11991;57.150;-2.134;2022-10-15T10:20:56;0.50;;;0.50;;
23628;SDS011;11991;57.150;-2.134;2022-10-15T10:25:57;0.60;;;0.60;;
23628;SDS011;11991;57.150;-2.134;2022-10-15T10:33:27;0.93;;;0.70;;
23628;SDS011;11991;57.150;-2.134;2022-10-15T10:35:54;0.95;;;0.63;;
23628;SDS011;11991;57.150;-2.134;2022-10-15T10:41:05;0.73;;;0.70;;
23628;SDS011;11991;57.150;-2.134;2022-10-15T10:43:39;0.73;;;0.70;;
23628;SDS011;11991;57.150;-2.134;2022-10-15T10:46:18;1.63;;;0.60;;
23628;SDS011;11991;57.150;-2.134;2022-10-15T10:48:51;1.42;;;0.82;;
23628;SDS011;11991;57.150;-2.134;2022-10-15T10:51:20;1.10;;;0.75;;
23628;SDS011;11991;57.150;-2.134;2022-10-15T10:59:47;0.50;;;0.50;;
23628;SDS011;11991;57.150;-2.134;2022-10-15T11:01:47;0.77;;;0.50;;
23628;SDS011;11991;57.150;-2.134;2022-10-15T11:04:23;0.60;;;0.60;;
23628;SDS011;11991;57.150;-2.134;2022-10-15T11:10:09;0.95;;;0.50;;
23628;SDS011;11991;57.150;-2.134;2022-10-15T11:40:31;0.40;;;0.40;;
23628;SDS011;11991;57.150;-2.134;2022-10-15T11:46:24;0.40;;;0.40;;
23628;SDS011;11991;57.150;-2.134;2022-10-15T11:49:13;0.50;;;0.50;;
23628;SDS011;11991;57.150;-2.134;2022-10-15T11:51:59;0.40;;;0.40;;
23628;SDS011;11991;57.150;-2.134;2022-10-15T11:54:34;0.43;;;0.43;;
23628;SDS011;11991;57.150;-2.134;2022-10-15T11:57:34;0.50;;;0.50;;
23628;SDS011;11991;57.150;-2.134;2022-10-15T12:00:15;0.40;;;0.40;;
23628;SDS011;11991;57.150;-2.134;2022-10-15T12:03:09;0.45;;;0.40;;
23628;SDS011;11991;57.150;-2.134;2022-10-15T12:05:42;0.65;;;0.40;;
23628;SDS011;11991;57.150;-2.134;2022-10-15T12:08:14;0.45;;;0.45;;
23628;SDS011;11991;57.150;-2.134;2022-10-15T12:13:36;0.30;;;0.30;;
23628;SDS011;11991;57.150;-2.134;2022-10-15T12:16:23;0.30;;;0.30;;
23628;SDS011;11991;57.150;-2.134;2022-10-15T12:19:15;0.65;;;0.40;;
23628;SDS011;11991;57.150;-2.134;2022-10-15T12:29:46;0.30;;;0.30;;
23628;SDS011;11991;57.150;-2.134;2022-10-15T12:32:22;0.30;;;0.30;;
23628;SDS011;11991;57.150;-2.134;2022-10-15T12:34:55;0.50;;;0.50;;
23628;SDS011;11991;57.150;-2.134;2022-10-15T12:37:28;0.52;;;0.45;;
23628;SDS011;11991;57.150;-2.134;2022-10-15T12:40:04;0.52;;;0.52;;
23628;SDS011;11991;57.150;-2.134;2022-10-15T12:42:52;0.70;;;0.50;;
23628;SDS011;11991;57.150;-2.134;2022-10-15T12:45:38;0.30;;;0.30;;
23628;SDS011;11991;57.150;-2.134;2022-10-15T12:50:35;0.70;;;0.70;;
23628;SDS011;11991;57.150;-2.134;2022-10-15T12:56:38;0.60;;;0.60;;
23628;SDS011;11991;57.150;-2.134;2022-10-15T12:58:55;1.42;;;1.33;;
23628;SDS011;11991;57.150;-2.134;2022-10-15T13:01:26;0.70;;;0.50;;
23628;SDS011;11991;57.150;-2.134;2022-10-15T13:03:57;0.80;;;0.60;;
23628;SDS011;11991;57.150;-2.134;2022-10-15T13:06:29;0.63;;;0.63;;
23628;SDS011;11991;57.150;-2.134;2022-10-15T13:16:53;0.70;;;0.60;;
23628;SDS011;11991;57.150;-2.134;2022-10-15T13:19:24;0.50;;;0.50;;
23628;SDS011;11991;57.150;-2.134;2022-10-15T13:22:01;0.65;;;0.50;;
23628;SDS011;11991;57.150;-2.134;2022-10-15T13:24:40;0.40;;;0.40;;
23628;SDS011;11991;57.150;-2.134;2022-10-15T13:27:23;0.30;;;0.30;;
23628;SDS011;11991;57.150;-2.134;2022-10-15T13:32:26;0.50;;;0.50;;
23628;SDS011;11991;57.150;-2.134;2022-10-15T13:34:57;0.60;;;0.60;;
23628;SDS011;11991;57.150;-2.134;2022-10-15T13:37:30;0.68;;;0.60;;
23628;SDS011;11991;57.150;-2.134;2022-10-15T13:40:00;0.40;;;0.40;;
23628;SDS011;11991;57.150;-2.134;2022-10-15T13:42:33;1.25;;;0.70;;
23628;SDS011;11991;57.150;-2.134;2022-10-15T13:45:14;0.45;;;0.45;;
23628;SDS011;11991;57.150;-2.134;2022-10-15T13:47:47;0.30;;;0.30;;
23628;SDS011;11991;57.150;-2.134;2022-10-15T13:55:37;1.27;;;0.40;;
23628;SDS011;11991;57.150;-2.134;2022-10-15T13:58:17;0.85;;;0.30;;
23628;SDS011;11991;57.150;-2.134;2022-10-15T14:00:52;0.45;;;0.45;;
23628;SDS011;11991;57.150;-2.134;2022-10-15T14:03:35;0.40;;;0.40;;
23628;SDS011;11991;57.150;-2.134;2022-10-15T14:06:10;0.50;;;0.50;;
23628;SDS011;11991;57.150;-2.134;2022-10-15T14:08:48;1.55;;;1.17;;
23628;SDS011;11991;57.150;-2.134;2022-10-15T14:11:22;0.65;;;0.60;;
23628;SDS011;11991;57.150;-2.134;2022-10-15T14:13:50;0.50;;;0.50;;
23628;SDS011;11991;57.150;-2.134;2022-10-15T14:16:36;0.50;;;0.50;;
23628;SDS011;11991;57.150;-2.134;2022-10-15T14:19:13;0.52;;;0.52;;
23628;SDS011;11991;57.150;-2.134;2022-10-15T14:21:45;0.60;;;0.60;;
23628;SDS011;11991;57.150;-2.134;2022-10-15T14:24:15;1.02;;;0.50;;
23628;SDS011;11991;57.150;-2.134;2022-10-15T14:26:47;0.77;;;0.77;;
23628;SDS011;11991;57.150;-2.134;2022-10-15T14:31:47;0.40;;;0.40;;
23628;SDS011;11991;57.150;-2.134;2022-10-15T14:37:01;1.92;;;1.30;;
23628;SDS011;11991;57.150;-2.134;2022-10-15T14:39:50;2.03;;;1.48;;
23628;SDS011;11991;57.150;-2.134;2022-10-15T14:42:37;1.45;;;1.25;;
23628;SDS011;11991;57.150;-2.134;2022-10-15T14:47:46;0.98;;;0.90;;
23628;SDS011;11991;57.150;-2.134;2022-10-15T14:50:17;2.95;;;1.90;;
23628;SDS011;11991;57.150;-2.134;2022-10-15T14:52:46;1.60;;;1.17;;
23628;SDS011;11991;57.150;-2.134;2022-10-15T14:55:25;0.75;;;0.75;;
23628;SDS011;11991;57.150;-2.134;2022-10-15T14:57:57;0.98;;;0.90;;
23628;SDS011;11991;57.150;-2.134;2022-10-15T15:00:27;0.95;;;0.80;;
23628;SDS011;11991;57.150;-2.134;2022-10-15T15:03:00;0.93;;;0.80;;
23628;SDS011;11991;57.150;-2.134;2022-10-15T15:05:30;2.08;;;1.15;;
23628;SDS011;11991;57.150;-2.134;2022-10-15T15:08:13;1.08;;;0.60;;
23628;SDS011;11991;57.150;-2.134;2022-10-15T15:10:41;1.30;;;0.77;;
23628;SDS011;11991;57.150;-2.134;2022-10-15T15:13:10;0.95;;;0.85;;
23628;SDS011;11991;57.150;-2.134;2022-10-15T15:15:39;1.90;;;1.42;;
23628;SDS011;11991;57.150;-2.134;2022-10-15T15:18:08;2.08;;;1.30;;
23628;SDS011;11991;57.150;-2.134;2022-10-15T15:20:36;2.67;;;1.10;;
23628;SDS011;11991;57.150;-2.134;2022-10-15T15:23:05;1.00;;;0.70;;
23628;SDS011;11991;57.150;-2.134;2022-10-15T15:25:35;2.55;;;1.23;;
23628;SDS011;11991;57.150;-2.134;2022-10-15T15:28:03;2.10;;;0.82;;
23628;SDS011;11991;57.150;-2.134;2022-10-15T15:30:32;1.13;;;0.93;;
23628;SDS011;11991;57.150;-2.134;2022-10-15T15:33:00;1.60;;;1.30;;
23628;SDS011;11991;57.150;-2.134;2022-10-15T15:35:41;1.45;;;1.10;;
23628;SDS011;11991;57.150;-2.134;2022-10-15T15:38:20;1.27;;;0.80;;
23628;SDS011;11991;57.150;-2.134;2022-10-15T15:40:49;0.60;;;0.60;;
23628;SDS011;11991;57.150;-2.134;2022-10-15T15:43:17;1.35;;;0.80;;
23628;SDS011;11991;57.150;-2.134;2022-10-15T15:45:45;1.58;;;1.20;;
23628;SDS011;11991;57.150;-2.134;2022-10-15T15:48:12;1.30;;;0.85;;
23628;SDS011;11991;57.150;-2.134;2022-10-15T15:50:40;1.15;;;1.05;;
23628;SDS011;11991;57.150;-2.134;2022-10-15T15:53:07;0.52;;;0.52;;
23628;SDS011;11991;57.150;-2.134;2022-10-15T15:55:38;0.85;;;0.75;;
23628;SDS011;11991;57.150;-2.134;2022-10-15T15:58:06;0.93;;;0.57;;
23628;SDS011;11991;57.150;-2.134;2022-10-15T16:00:33;1.60;;;0.95;;
23628;SDS011;11991;57.150;-2.134;2022-10-15T16:03:00;2.42;;;1.13;;
23628;SDS011;11991;57.150;-2.134;2022-10-15T16:05:27;0.82;;;0.82;;
23628;SDS011;11991;57.150;-2.134;2022-10-15T16:07:54;2.03;;;1.55;;
23628;SDS011;11991;57.150;-2.134;2022-10-15T16:10:22;4.10;;;2.00;;
23628;SDS011;11991;57.150;-2.134;2022-10-15T16:12:49;2.13;;;1.13;;
23628;SDS011;11991;57.150;-2.134;2022-10-15T16:15:17;2.33;;;1.00;;
23628;SDS011;11991;57.150;-2.134;2022-10-15T16:17:44;1.65;;;0.80;;
23628;SDS011;11991;57.150;-2.134;2022-10-15T16:20:11;1.75;;;0.90;;
23628;SDS011;11991;57.150;-2.134;2022-10-15T16:22:39;2.17;;;1.73;;
23628;SDS011;11991;57.150;-2.134;2022-10-15T16:25:06;3.30;;;2.08;;
23628;SDS011;11991;57.150;-2.134;2022-10-15T16:27:34;2.60;;;2.00;;
23628;SDS011;11991;57.150;-2.134;2022-10-15T16:30:02;1.73;;;1.30;;
23628;SDS011;11991;57.150;-2.134;2022-10-15T16:32:29;1.25;;;0.90;;
23628;SDS011;11991;57.150;-2.134;2022-10-15T16:34:57;1.80;;;1.00;;
23628;SDS011;11991;57.150;-2.134;2022-10-15T16:37:24;0.80;;;0.80;;
23628;SDS011;11991;57.150;-2.134;2022-10-15T16:39:51;1.25;;;0.90;;
23628;SDS011;11991;57.150;-2.134;2022-10-15T16:42:18;1.60;;;0.95;;
23628;SDS011;11991;57.150;-2.134;2022-10-15T16:44:45;2.85;;;1.40;;
23628;SDS011;11991;57.150;-2.134;2022-10-15T16:47:13;1.10;;;1.00;;
23628;SDS011;11991;57.150;-2.134;2022-10-15T16:49:40;1.02;;;0.85;;
23628;SDS011;11991;57.150;-2.134;2022-10-15T16:52:09;1.45;;;1.00;;
23628;SDS011;11991;57.150;-2.134;2022-10-15T16:54:36;1.48;;;1.02;;
23628;SDS011;11991;57.150;-2.134;2022-10-15T16:57:04;2.65;;;1.45;;
23628;SDS011;11991;57.150;-2.134;2022-10-15T16:59:31;1.15;;;1.02;;
23628;SDS011;11991;57.150;-2.134;2022-10-15T17:01:58;2.50;;;1.30;;
23628;SDS011;11991;57.150;-2.134;2022-10-15T17:04:26;2.47;;;1.10;;
23628;SDS011;11991;57.150;-2.134;2022-10-15T17:06:54;1.70;;;1.30;;
23628;SDS011;11991;57.150;-2.134;2022-10-15T17:09:21;1.75;;;1.23;;
23628;SDS011;11991;57.150;-2.134;2022-10-15T17:11:49;1.50;;;1.17;;
23628;SDS011;11991;57.150;-2.134;2022-10-15T17:14:18;1.63;;;1.15;;
23628;SDS011;11991;57.150;-2.134;2022-10-15T17:16:46;1.20;;;1.05;;
23628;SDS011;11991;57.150;-2.134;2022-10-15T17:19:19;2.40;;;1.92;;
23628;SDS011;11991;57.150;-2.134;2022-10-15T17:21:51;1.30;;;1.10;;